Terminal Aerodrome Forecast
Issued by NWS Los Angeles, CA

Home | Current Version | Previous Version | Text Only | Print | Product List | Glossary On
Versions: 1 2 3 4 5 6 7 8 9 10 11 12 13 14 15 16 17 18 19 20 21 22 23 24 25
000
FTUS46 KLOX 032331
TAFSMX
TAF
KSMX 032331Z 0400/0424 30018G25KT P6SM SCT200
     FM040200 30012KT P6SM BKN200
     FM040400 30006KT P6SM SCT010
     FM040600 VRB03KT 6SM BR OVC008
     FM041100 VRB03KT 2SM BR OVC004
     FM041600 VRB03KT P6SM SCT150
     FM041900 30015G22KT P6SM SCT150=

USA.gov is the U.S. government's official web portal to all federal, state and local government web resources and services.